sensor_id;sensor_type;location;lat;lon;timestamp;pressure;altitude;pressure_sealevel;temperature;humidity
50093;BME280;35974;47.752;10.290;2023-12-20T00:01:02;93908.38;;;3.55;100.00
50093;BME280;35974;47.752;10.290;2023-12-20T00:03:28;93899.81;;;3.95;100.00
50093;BME280;35974;47.752;10.290;2023-12-20T00:06:07;93893.31;;;4.08;100.00
50093;BME280;35974;47.752;10.290;2023-12-20T00:08:33;93889.63;;;3.85;100.00
50093;BME280;35974;47.752;10.290;2023-12-20T00:11:00;93884.28;;;3.95;100.00
50093;BME280;35974;47.752;10.290;2023-12-20T00:13:26;93871.81;;;3.74;100.00
50093;BME280;35974;47.752;10.290;2023-12-20T00:15:52;93866.50;;;3.84;100.00
50093;BME280;35974;47.752;10.290;2023-12-20T00:18:19;93855.50;;;3.90;100.00
50093;BME280;35974;47.752;10.290;2023-12-20T00:20:45;93850.28;;;4.07;100.00
50093;BME280;35974;47.752;10.290;2023-12-20T00:23:12;93849.47;;;4.06;100.00
50093;BME280;35974;47.752;10.290;2023-12-20T00:25:38;93858.06;;;3.98;100.00
50093;BME280;35974;47.752;10.290;2023-12-20T00:28:05;93845.47;;;3.87;100.00
50093;BME280;35974;47.752;10.290;2023-12-20T00:30:32;93857.75;;;3.93;100.00
50093;BME280;35974;47.752;10.290;2023-12-20T00:32:58;93861.31;;;3.84;100.00
50093;BME280;35974;47.752;10.290;2023-12-20T00:35:25;93850.66;;;3.71;100.00
50093;BME280;35974;47.752;10.290;2023-12-20T00:37:51;93860.00;;;3.80;100.00
50093;BME280;35974;47.752;10.290;2023-12-20T00:40:17;93868.91;;;3.61;100.00
50093;BME280;35974;47.752;10.290;2023-12-20T00:42:44;93861.00;;;3.54;100.00
50093;BME280;35974;47.752;10.290;2023-12-20T00:45:10;93873.91;;;3.46;100.00
50093;BME280;35974;47.752;10.290;2023-12-20T00:47:37;93869.69;;;3.37;100.00
50093;BME280;35974;47.752;10.290;2023-12-20T00:50:03;93877.75;;;3.25;100.00
50093;BME280;35974;47.752;10.290;2023-12-20T00:52:30;93858.72;;;3.43;100.00
50093;BME280;35974;47.752;10.290;2023-12-20T00:54:56;93887.19;;;3.67;100.00
50093;BME280;35974;47.752;10.290;2023-12-20T00:57:22;93876.38;;;3.80;100.00
50093;BME280;35974;47.752;10.290;2023-12-20T00:59:49;93866.97;;;3.79;100.00
50093;BME280;35974;47.752;10.290;2023-12-20T01:02:16;93884.28;;;3.95;100.00
50093;BME280;35974;47.752;10.290;2023-12-20T01:04:42;93888.16;;;3.91;100.00
50093;BME280;35974;47.752;10.290;2023-12-20T01:07:08;93882.66;;;3.78;100.00
50093;BME280;35974;47.752;10.290;2023-12-20T01:09:35;93874.56;;;3.89;100.00
50093;BME280;35974;47.752;10.290;2023-12-20T01:12:01;93867.28;;;3.68;100.00
50093;BME280;35974;47.752;10.290;2023-12-20T01:14:28;93846.44;;;3.61;100.00
50093;BME280;35974;47.752;10.290;2023-12-20T01:16:54;93844.13;;;3.99;100.00
50093;BME280;35974;47.752;10.290;2023-12-20T01:19:20;93839.31;;;3.80;100.00
50093;BME280;35974;47.752;10.290;2023-12-20T01:21:47;93854.19;;;3.70;100.00
50093;BME280;35974;47.752;10.290;2023-12-20T01:24:14;93861.31;;;3.59;100.00
50093;BME280;35974;47.752;10.290;2023-12-20T01:26:40;93851.28;;;3.64;100.00
50093;BME280;35974;47.752;10.290;2023-12-20T01:29:06;93850.66;;;3.71;100.00
50093;BME280;35974;47.752;10.290;2023-12-20T01:31:33;93849.66;;;3.80;100.00
50093;BME280;35974;47.752;10.290;2023-12-20T01:33:59;93835.91;;;3.71;100.00
50093;BME280;35974;47.752;10.290;2023-12-20T01:36:26;93846.09;;;3.97;100.00
50093;BME280;35974;47.752;10.290;2023-12-20T01:38:52;93851.25;;;3.97;100.00
50093;BME280;35974;47.752;10.290;2023-12-20T01:41:18;93856.75;;;3.94;100.00
50093;BME280;35974;47.752;10.290;2023-12-20T01:43:45;93849.31;;;3.99;100.00
50093;BME280;35974;47.752;10.290;2023-12-20T01:46:17;93848.69;;;3.97;100.00
50093;BME280;35974;47.752;10.290;2023-12-20T01:48:43;93851.25;;;3.97;100.00
50093;BME280;35974;47.752;10.290;2023-12-20T01:51:10;93849.63;;;3.96;100.00
50093;BME280;35974;47.752;10.290;2023-12-20T01:53:37;93839.13;;;3.98;100.00
50093;BME280;35974;47.752;10.290;2023-12-20T01:56:04;93806.97;;;3.76;100.00
50093;BME280;35974;47.752;10.290;2023-12-20T01:58:30;93812.47;;;3.73;100.00
50093;BME280;35974;47.752;10.290;2023-12-20T02:00:57;93817.00;;;3.79;100.00
50093;BME280;35974;47.752;10.290;2023-12-20T02:03:23;93808.06;;;3.90;100.00
50093;BME280;35974;47.752;10.290;2023-12-20T02:05:50;93784.59;;;3.91;100.00
50093;BME280;35974;47.752;10.290;2023-12-20T02:08:16;93779.75;;;3.88;100.00
50093;BME280;35974;47.752;10.290;2023-12-20T02:10:42;93770.31;;;4.12;100.00
50093;BME280;35974;47.752;10.290;2023-12-20T02:13:09;93783.63;;;4.00;100.00
50093;BME280;35974;47.752;10.290;2023-12-20T02:15:36;93793.97;;;4.09;100.00
50093;BME280;35974;47.752;10.290;2023-12-20T02:18:04;93789.72;;;4.24;100.00
50093;BME280;35974;47.752;10.290;2023-12-20T02:20:30;93790.97;;;4.28;100.00
50093;BME280;35974;47.752;10.290;2023-12-20T02:22:56;93780.22;;;4.48;100.00
50093;BME280;35974;47.752;10.290;2023-12-20T02:25:23;93794.50;;;4.44;100.00
50093;BME280;35974;47.752;10.290;2023-12-20T02:27:51;93790.97;;;4.28;100.00
50093;BME280;35974;47.752;10.290;2023-12-20T02:30:18;93791.31;;;4.25;100.00
50093;BME280;35974;47.752;10.290;2023-12-20T02:32:44;93790.72;;;4.15;100.00
50093;BME280;35974;47.752;10.290;2023-12-20T02:35:12;93790.25;;;4.11;100.00
50093;BME280;35974;47.752;10.290;2023-12-20T02:37:38;93780.69;;;4.12;100.00
50093;BME280;35974;47.752;10.290;2023-12-20T02:40:04;93794.91;;;4.08;100.00
50093;BME280;35974;47.752;10.290;2023-12-20T02:42:31;93786.13;;;4.25;100.00
50093;BME280;35974;47.752;10.290;2023-12-20T02:44:58;93791.31;;;4.25;100.00
50093;BME280;35974;47.752;10.290;2023-12-20T02:47:24;93787.44;;;4.29;100.00
50093;BME280;35974;47.752;10.290;2023-12-20T02:49:50;93782.25;;;4.29;100.00
50093;BME280;35974;47.752;10.290;2023-12-20T02:52:19;93801.00;;;4.31;100.00
50093;BME280;35974;47.752;10.290;2023-12-20T02:54:45;93784.34;;;4.34;100.00
50093;BME280;35974;47.752;10.290;2023-12-20T02:57:12;93790.94;;;4.45;100.00
50093;BME280;35974;47.752;10.290;2023-12-20T02:59:38;93793.22;;;4.39;100.00
50093;BME280;35974;47.752;10.290;2023-12-20T03:02:04;93782.19;;;4.46;100.00
50093;BME280;35974;47.752;10.290;2023-12-20T03:04:31;93788.28;;;4.53;100.00
50093;BME280;35974;47.752;10.290;2023-12-20T03:06:57;93783.66;;;4.40;100.00
50093;BME280;35974;47.752;10.290;2023-12-20T03:09:24;93779.94;;;4.43;100.00
50093;BME280;35974;47.752;10.290;2023-12-20T03:11:50;93787.09;;;4.32;100.00
50093;BME280;35974;47.752;10.290;2023-12-20T03:14:17;93788.50;;;4.43;100.00
50093;BME280;35974;47.752;10.290;2023-12-20T03:16:46;93779.00;;;4.27;100.00
50093;BME280;35974;47.752;10.290;2023-12-20T03:19:13;93775.16;;;4.15;100.00
50093;BME280;35974;47.752;10.290;2023-12-20T03:21:40;93774.19;;;4.08;100.00
50093;BME280;35974;47.752;10.290;2023-12-20T03:24:06;93797.84;;;3.96;100.00
50093;BME280;35974;47.752;10.290;2023-12-20T03:26:33;93793.66;;;3.95;100.00
50093;BME280;35974;47.752;10.290;2023-12-20T03:28:59;93791.41;;;3.92;100.00
50093;BME280;35974;47.752;10.290;2023-12-20T03:34:54;93796.13;;;3.89;100.00
50093;BME280;35974;47.752;10.290;2023-12-20T03:37:21;93808.91;;;3.74;100.00
50093;BME280;35974;47.752;10.290;2023-12-20T03:39:47;93785.47;;;3.59;100.00
50093;BME280;35974;47.752;10.290;2023-12-20T03:42:14;93818.59;;;3.80;100.00
50093;BME280;35974;47.752;10.290;2023-12-20T03:44:43;93821.50;;;3.77;100.00
50093;BME280;35974;47.752;10.290;2023-12-20T03:47:10;93826.38;;;3.72;100.00
50093;BME280;35974;47.752;10.290;2023-12-20T03:49:36;93835.75;;;3.48;100.00
50093;BME280;35974;47.752;10.290;2023-12-20T03:52:05;93828.31;;;3.53;100.00
50093;BME280;35974;47.752;10.290;2023-12-20T03:54:31;93832.19;;;3.49;100.00
50093;BME280;35974;47.752;10.290;2023-12-20T03:56:58;93831.22;;;3.42;100.00
50093;BME280;35974;47.752;10.290;2023-12-20T03:59:24;93840.63;;;3.43;100.00
50093;BME280;35974;47.752;10.290;2023-12-20T04:01:50;93832.19;;;3.33;100.00
50093;BME280;35974;47.752;10.290;2023-12-20T04:04:17;93838.03;;;3.43;100.00
50093;BME280;35974;47.752;10.290;2023-12-20T04:06:43;93839.63;;;3.36;100.00
50093;BME280;35974;47.752;10.290;2023-12-20T04:09:10;93840.59;;;3.35;100.00
50093;BME280;35974;47.752;10.290;2023-12-20T04:11:36;93826.38;;;3.39;100.00
50093;BME280;35974;47.752;10.290;2023-12-20T04:14:03;93825.06;;;3.35;100.00
50093;BME280;35974;47.752;10.290;2023-12-20T04:16:31;93820.25;;;3.40;100.00
50093;BME280;35974;47.752;10.290;2023-12-20T04:18:57;93814.41;;;3.38;100.00
50093;BME280;35974;47.752;10.290;2023-12-20T04:21:24;93818.28;;;3.34;100.00
50093;BME280;35974;47.752;10.290;2023-12-20T04:23:50;93812.81;;;3.37;100.00
50093;BME280;35974;47.752;10.290;2023-12-20T04:26:17;93821.53;;;3.36;100.00
50093;BME280;35974;47.752;10.290;2023-12-20T04:28:43;93818.28;;;3.34;100.00
50093;BME280;35974;47.752;10.290;2023-12-20T04:31:10;93828.31;;;3.37;100.00
50093;BME280;35974;47.752;10.290;2023-12-20T04:33:36;93832.19;;;3.41;100.00
50093;BME280;35974;47.752;10.290;2023-12-20T04:36:03;93825.41;;;3.40;100.00
50093;BME280;35974;47.752;10.290;2023-12-20T04:38:30;93838.97;;;3.34;100.00
50093;BME280;35974;47.752;10.290;2023-12-20T04:40:58;93837.38;;;3.49;100.00
50093;BME280;35974;47.752;10.290;2023-12-20T04:43:24;93848.34;;;3.35;100.00
50093;BME280;35974;47.752;10.290;2023-12-20T04:45:51;93846.09;;;3.32;100.00
50093;BME280;35974;47.752;10.290;2023-12-20T04:48:17;93854.00;;;3.30;100.00
50093;BME280;35974;47.752;10.290;2023-12-20T04:50:44;93852.56;;;3.36;100.00
50093;BME280;35974;47.752;10.290;2023-12-20T04:53:10;93862.28;;;3.42;100.00
50093;BME280;35974;47.752;10.290;2023-12-20T04:55:37;93870.50;;;3.54;100.00
50093;BME280;35974;47.752;10.290;2023-12-20T04:58:03;93878.75;;;3.49;100.00
50093;BME280;35974;47.752;10.290;2023-12-20T05:00:30;93879.09;;;3.62;100.00
50093;BME280;35974;47.752;10.290;2023-12-20T05:02:56;93889.41;;;3.29;100.00
50093;BME280;35974;47.752;10.290;2023-12-20T05:05:23;93886.97;;;3.28;100.00
50093;BME280;35974;47.752;10.290;2023-12-20T05:07:49;93884.81;;;3.07;100.00
50093;BME280;35974;47.752;10.290;2023-12-20T05:10:16;93883.84;;;3.00;100.00
50093;BME280;35974;47.752;10.290;2023-12-20T05:12:42;93887.69;;;2.96;100.00
50093;BME280;35974;47.752;10.290;2023-12-20T05:15:09;93891.19;;;2.78;100.00
50093;BME280;35974;47.752;10.290;2023-12-20T05:17:35;93900.22;;;2.74;100.00
50093;BME280;35974;47.752;10.290;2023-12-20T05:20:02;93910.34;;;2.67;100.00
50093;BME280;35974;47.752;10.290;2023-12-20T05:22:28;93903.84;;;2.55;100.00
50093;BME280;35974;47.752;10.290;2023-12-20T05:24:55;93909.25;;;2.44;100.00
50093;BME280;35974;47.752;10.290;2023-12-20T05:27:21;93908.75;;;2.40;100.00
50093;BME280;35974;47.752;10.290;2023-12-20T05:29:48;93912.94;;;2.33;100.00
50093;BME280;35974;47.752;10.290;2023-12-20T05:32:14;93922.56;;;2.23;100.00
50093;BME280;35974;47.752;10.290;2023-12-20T05:34:41;93924.09;;;2.15;100.00
50093;BME280;35974;47.752;10.290;2023-12-20T05:37:07;93925.38;;;2.11;100.00
50093;BME280;35974;47.752;10.290;2023-12-20T05:39:34;93928.91;;;2.10;100.00
50093;BME280;35974;47.752;10.290;2023-12-20T05:42:01;93933.78;;;2.13;100.00
50093;BME280;35974;47.752;10.290;2023-12-20T05:44:27;93938.75;;;2.07;100.00
50093;BME280;35974;47.752;10.290;2023-12-20T05:46:53;93939.91;;;1.94;100.00
50093;BME280;35974;47.752;10.290;2023-12-20T05:49:20;93940.44;;;1.98;100.00
50093;BME280;35974;47.752;10.290;2023-12-20T05:51:50;93942.22;;;1.79;100.00
50093;BME280;35974;47.752;10.290;2023-12-20T05:54:17;93952.84;;;1.76;100.00
50093;BME280;35974;47.752;10.290;2023-12-20T05:56:45;93959.00;;;1.83;100.00
50093;BME280;35974;47.752;10.290;2023-12-20T05:59:11;93948.09;;;1.90;100.00
50093;BME280;35974;47.752;10.290;2023-12-20T06:01:38;93952.84;;;1.76;100.00
50093;BME280;35974;47.752;10.290;2023-12-20T06:04:05;93956.66;;;1.72;100.00
50093;BME280;35974;47.752;10.290;2023-12-20T06:06:32;93962.56;;;1.82;100.00
50093;BME280;35974;47.752;10.290;2023-12-20T06:08:59;93965.66;;;1.68;100.00
50093;BME280;35974;47.752;10.290;2023-12-20T06:11:33;93962.13;;;1.69;100.00
50093;BME280;35974;47.752;10.290;2023-12-20T06:14:00;93965.00;;;1.66;100.00
50093;BME280;35974;47.752;10.290;2023-12-20T06:16:26;93979.81;;;1.64;100.00
50093;BME280;35974;47.752;10.290;2023-12-20T06:18:52;93987.84;;;1.61;100.00
50093;BME280;35974;47.752;10.290;2023-12-20T06:21:20;93970.09;;;1.58;100.00
50093;BME280;35974;47.752;10.290;2023-12-20T06:23:46;93974.63;;;1.64;100.00
50093;BME280;35974;47.752;10.290;2023-12-20T06:26:12;93963.31;;;1.57;100.00
50093;BME280;35974;47.752;10.290;2023-12-20T06:28:39;93980.13;;;1.61;100.00
50093;BME280;35974;47.752;10.290;2023-12-20T06:31:07;93977.81;;;1.58;100.00
50093;BME280;35974;47.752;10.290;2023-12-20T06:33:34;93981.50;;;1.73;100.00
50093;BME280;35974;47.752;10.290;2023-12-20T06:36:00;93989.03;;;1.67;100.00
50093;BME280;35974;47.752;10.290;2023-12-20T06:38:27;93978.34;;;1.79;100.00
50093;BME280;35974;47.752;10.290;2023-12-20T06:40:53;93988.72;;;1.70;100.00
50093;BME280;35974;47.752;10.290;2023-12-20T06:43:20;93982.78;;;1.69;100.00
50093;BME280;35974;47.752;10.290;2023-12-20T06:46:06;93986.97;;;1.70;100.00
50093;BME280;35974;47.752;10.290;2023-12-20T06:48:33;93980.69;;;1.55;100.00
50093;BME280;35974;47.752;10.290;2023-12-20T06:50:59;93988.44;;;1.55;100.00
50093;BME280;35974;47.752;10.290;2023-12-20T06:53:26;93987.75;;;1.53;100.00
50093;BME280;35974;47.752;10.290;2023-12-20T06:55:52;93997.78;;;1.56;100.00
50093;BME280;35974;47.752;10.290;2023-12-20T06:58:19;93996.47;;;1.52;100.00
50093;BME280;35974;47.752;10.290;2023-12-20T07:00:45;93998.06;;;1.53;100.00
50093;BME280;35974;47.752;10.290;2023-12-20T07:03:12;93997.25;;;1.52;100.00
50093;BME280;35974;47.752;10.290;2023-12-20T07:05:38;93995.88;;;1.58;100.00
50093;BME280;35974;47.752;10.290;2023-12-20T07:08:05;93987.47;;;1.56;100.00
50093;BME280;35974;47.752;10.290;2023-12-20T07:10:32;93992.03;;;1.62;100.00
50093;BME280;35974;47.752;10.290;2023-12-20T07:12:58;93990.50;;;1.69;100.00
50093;BME280;35974;47.752;10.290;2023-12-20T07:15:25;94005.31;;;1.67;100.00
50093;BME280;35974;47.752;10.290;2023-12-20T07:17:51;94011.22;;;1.77;100.00
50093;BME280;35974;47.752;10.290;2023-12-20T07:20:17;94013.66;;;1.79;100.00
50093;BME280;35974;47.752;10.290;2023-12-20T07:22:44;94013.94;;;1.76;100.00
50093;BME280;35974;47.752;10.290;2023-12-20T07:25:10;94013.59;;;1.89;100.00
50093;BME280;35974;47.752;10.290;2023-12-20T07:27:37;94009.00;;;1.82;100.00
50093;BME280;35974;47.752;10.290;2023-12-20T07:30:03;94007.66;;;1.78;100.00
50093;BME280;35974;47.752;10.290;2023-12-20T07:32:30;94017.25;;;1.68;100.00
50093;BME280;35974;47.752;10.290;2023-12-20T07:34:56;94020.56;;;1.78;100.00
50093;BME280;35974;47.752;10.290;2023-12-20T07:37:23;94023.16;;;1.78;100.00
50093;BME280;35974;47.752;10.290;2023-12-20T07:39:50;94007.38;;;1.81;100.00
50093;BME280;35974;47.752;10.290;2023-12-20T07:42:16;94009.59;;;1.76;100.00
50093;BME280;35974;47.752;10.290;2023-12-20T07:44:42;94012.09;;;1.68;100.00
50093;BME280;35974;47.752;10.290;2023-12-20T07:47:09;94021.47;;;1.69;100.00
50093;BME280;35974;47.752;10.290;2023-12-20T07:49:35;94004.44;;;1.76;100.00
50093;BME280;35974;47.752;10.290;2023-12-20T07:52:02;94018.28;;;1.75;100.00
50093;BME280;35974;47.752;10.290;2023-12-20T07:54:28;94025.38;;;1.73;100.00
50093;BME280;35974;47.752;10.290;2023-12-20T07:56:55;94017.69;;;1.81;100.00
50093;BME280;35974;47.752;10.290;2023-12-20T07:59:21;94031.25;;;1.83;100.00
50093;BME280;35974;47.752;10.290;2023-12-20T08:01:58;94028.16;;;1.98;100.00
50093;BME280;35974;47.752;10.290;2023-12-20T08:04:24;94016.91;;;1.99;100.00
50093;BME280;35974;47.752;10.290;2023-12-20T08:06:51;94016.53;;;1.94;100.00
50093;BME280;35974;47.752;10.290;2023-12-20T08:09:18;94030.09;;;1.96;100.00
50093;BME280;35974;47.752;10.290;2023-12-20T08:11:46;94031.81;;;2.05;100.00
50093;BME280;35974;47.752;10.290;2023-12-20T08:14:12;94033.69;;;2.03;100.00
50093;BME280;35974;47.752;10.290;2023-12-20T08:16:39;94030.53;;;2.09;100.00
50093;BME280;35974;47.752;10.290;2023-12-20T08:19:05;94034.16;;;1.98;100.00
50093;BME280;35974;47.752;10.290;2023-12-20T08:21:32;94025.97;;;2.03;100.00
50093;BME280;35974;47.752;10.290;2023-12-20T08:24:03;94024.78;;;2.15;100.00
50093;BME280;35974;47.752;10.290;2023-12-20T08:26:29;94037.63;;;2.07;100.00
50093;BME280;35974;47.752;10.290;2023-12-20T08:28:56;94032.53;;;2.15;100.00
50093;BME280;35974;47.752;10.290;2023-12-20T08:31:25;94025.50;;;2.26;100.00
50093;BME280;35974;47.752;10.290;2023-12-20T08:33:52;94023.59;;;2.28;100.00
50093;BME280;35974;47.752;10.290;2023-12-20T08:36:19;94031.66;;;2.25;100.00
50093;BME280;35974;47.752;10.290;2023-12-20T08:38:47;94022.28;;;2.24;100.00
50093;BME280;35974;47.752;10.290;2023-12-20T08:41:14;94010.00;;;2.26;100.00
50093;BME280;35974;47.752;10.290;2023-12-20T08:43:40;94027.44;;;2.24;100.00
50093;BME280;35974;47.752;10.290;2023-12-20T08:46:07;94026.19;;;2.28;100.00
50093;BME280;35974;47.752;10.290;2023-12-20T08:48:36;94024.91;;;2.32;100.00
50093;BME280;35974;47.752;10.290;2023-12-20T08:51:03;94021.59;;;2.40;100.00
50093;BME280;35974;47.752;10.290;2023-12-20T08:53:30;94018.75;;;2.25;100.00
50093;BME280;35974;47.752;10.290;2023-12-20T08:55:56;94016.81;;;2.27;100.00
50093;BME280;35974;47.752;10.290;2023-12-20T08:58:27;94014.59;;;2.32;100.00
50093;BME280;35974;47.752;10.290;2023-12-20T09:00:54;94006.41;;;2.36;100.00
50093;BME280;35974;47.752;10.290;2023-12-20T09:03:21;94006.91;;;2.40;100.00
50093;BME280;35974;47.752;10.290;2023-12-20T09:05:47;94009.19;;;2.43;100.00
50093;BME280;35974;47.752;10.290;2023-12-20T09:08:14;94011.53;;;2.54;100.00
50093;BME280;35974;47.752;10.290;2023-12-20T09:10:40;94000.84;;;2.49;100.00
50093;BME280;35974;47.752;10.290;2023-12-20T09:13:07;94020.91;;;2.55;100.00
50093;BME280;35974;47.752;10.290;2023-12-20T09:15:33;94010.56;;;2.55;100.00
50093;BME280;35974;47.752;10.290;2023-12-20T09:18:02;94011.56;;;2.63;100.00
50093;BME280;35974;47.752;10.290;2023-12-20T09:20:30;94011.44;;;2.64;100.00
50093;BME280;35974;47.752;10.290;2023-12-20T09:22:57;94019.31;;;2.63;100.00
50093;BME280;35974;47.752;10.290;2023-12-20T09:25:24;94010.47;;;2.65;100.00
50093;BME280;35974;47.752;10.290;2023-12-20T09:27:52;94022.69;;;2.81;100.00
50093;BME280;35974;47.752;10.290;2023-12-20T09:30:19;94021.06;;;2.80;100.00
50093;BME280;35974;47.752;10.290;2023-12-20T09:32:53;94024.41;;;3.07;100.00
50093;BME280;35974;47.752;10.290;2023-12-20T09:35:19;94020.88;;;3.08;100.00
50093;BME280;35974;47.752;10.290;2023-12-20T09:37:46;94017.88;;;2.86;100.00
50093;BME280;35974;47.752;10.290;2023-12-20T09:40:13;94025.66;;;2.95;100.00
50093;BME280;35974;47.752;10.290;2023-12-20T09:42:47;94020.69;;;3.01;100.00
50093;BME280;35974;47.752;10.290;2023-12-20T09:45:15;94000.03;;;3.09;100.00
50093;BME280;35974;47.752;10.290;2023-12-20T09:47:46;94012.47;;;3.06;100.00
50093;BME280;35974;47.752;10.290;2023-12-20T09:50:13;94009.22;;;3.04;100.00
50093;BME280;35974;47.752;10.290;2023-12-20T09:52:39;94010.03;;;3.04;100.00
50093;BME280;35974;47.752;10.290;2023-12-20T09:55:06;94005.75;;;3.21;100.00
50093;BME280;35974;47.752;10.290;2023-12-20T09:57:33;94008.34;;;3.29;100.00
50093;BME280;35974;47.752;10.290;2023-12-20T10:00:00;94006.41;;;3.23;100.00
50093;BME280;35974;47.752;10.290;2023-12-20T10:02:26;94006.44;;;3.32;100.00
50093;BME280;35974;47.752;10.290;2023-12-20T10:04:54;93989.31;;;3.30;100.00
50093;BME280;35974;47.752;10.290;2023-12-20T10:07:20;93994.97;;;3.34;100.00
50093;BME280;35974;47.752;10.290;2023-12-20T10:09:48;93992.88;;;3.38;100.00
50093;BME280;35974;47.752;10.290;2023-12-20T10:12:15;93987.72;;;3.46;100.00
50093;BME280;35974;47.752;10.290;2023-12-20T10:14:41;93993.53;;;3.40;100.00
50093;BME280;35974;47.752;10.290;2023-12-20T10:17:08;93999.06;;;3.53;100.00
50093;BME280;35974;47.752;10.290;2023-12-20T10:19:34;93998.16;;;3.79;100.00
50093;BME280;35974;47.752;10.290;2023-12-20T10:22:01;93988.72;;;3.53;100.00
50093;BME280;35974;47.752;10.290;2023-12-20T10:24:30;93990.00;;;3.57;100.00
50093;BME280;35974;47.752;10.290;2023-12-20T10:29:33;93994.22;;;3.50;100.00
50093;BME280;35974;47.752;10.290;2023-12-20T10:35:02;93972.19;;;3.46;100.00
50093;BME280;35974;47.752;10.290;2023-12-20T10:37:29;93972.88;;;3.56;100.00
50093;BME280;35974;47.752;10.290;2023-12-20T10:39:55;93972.56;;;3.59;100.00
50093;BME280;35974;47.752;10.290;2023-12-20T10:42:24;93970.94;;;3.58;100.00
50093;BME280;35974;47.752;10.290;2023-12-20T10:44:52;93965.44;;;3.53;100.00
50093;BME280;35974;47.752;10.290;2023-12-20T10:47:20;93967.84;;;3.46;100.00
50093;BME280;35974;47.752;10.290;2023-12-20T10:49:46;93967.53;;;3.50;100.00
50093;BME280;35974;47.752;10.290;2023-12-20T10:52:14;93962.41;;;3.66;100.00
50093;BME280;35974;47.752;10.290;2023-12-20T10:54:40;93963.47;;;3.47;100.00
50093;BME280;35974;47.752;10.290;2023-12-20T10:57:07;93959.94;;;3.48;100.00
50093;BME280;35974;47.752;10.290;2023-12-20T10:59:35;93952.50;;;3.53;100.00
50093;BME280;35974;47.752;10.290;2023-12-20T11:02:02;93960.59;;;3.58;100.00
50093;BME280;35974;47.752;10.290;2023-12-20T11:09:38;93954.47;;;3.67;100.00
50093;BME280;35974;47.752;10.290;2023-12-20T11:14:41;93956.75;;;3.62;100.00
50093;BME280;35974;47.752;10.290;2023-12-20T11:17:10;93887.47;;;3.32;100.00
50093;BME280;35974;47.752;10.290;2023-12-20T11:22:24;93951.50;;;3.46;100.00
50093;BME280;35974;47.752;10.290;2023-12-20T11:24:52;93943.28;;;3.51;100.00
50093;BME280;35974;47.752;10.290;2023-12-20T11:27:19;93955.06;;;3.45;100.00
50093;BME280;35974;47.752;10.290;2023-12-20T11:29:51;93951.47;;;3.38;100.00
50093;BME280;35974;47.752;10.290;2023-12-20T11:34:53;93943.81;;;3.62;100.00
50093;BME280;35974;47.752;10.290;2023-12-20T11:37:20;93938.28;;;3.65;100.00
50093;BME280;35974;47.752;10.290;2023-12-20T11:40:00;93949.28;;;3.51;100.00
50093;BME280;35974;47.752;10.290;2023-12-20T11:42:28;93948.28;;;3.44;100.00
50093;BME280;35974;47.752;10.290;2023-12-20T11:44:54;93942.16;;;3.45;100.00
50093;BME280;35974;47.752;10.290;2023-12-20T11:47:22;93946.97;;;3.40;100.00
50093;BME280;35974;47.752;10.290;2023-12-20T11:49:48;93946.00;;;3.49;100.00
50093;BME280;35974;47.752;10.290;2023-12-20T11:52:15;93935.31;;;3.36;100.00
50093;BME280;35974;47.752;10.290;2023-12-20T11:54:42;93950.53;;;3.39;100.00
50093;BME280;35974;47.752;10.290;2023-12-20T11:57:08;93943.41;;;3.41;100.00
50093;BME280;35974;47.752;10.290;2023-12-20T11:59:36;93947.91;;;3.30;100.00
50093;BME280;35974;47.752;10.290;2023-12-20T12:02:02;93949.22;;;3.35;100.00
50093;BME280;35974;47.752;10.290;2023-12-20T12:04:29;93939.56;;;3.45;100.00
50093;BME280;35974;47.752;10.290;2023-12-20T12:06:56;93942.47;;;3.42;100.00
50093;BME280;35974;47.752;10.290;2023-12-20T12:09:23;93938.28;;;3.57;100.00
50093;BME280;35974;47.752;10.290;2023-12-20T12:11:49;93934.06;;;3.48;100.00
50093;BME280;35974;47.752;10.290;2023-12-20T12:14:16;93953.75;;;3.41;100.00
50093;BME280;35974;47.752;10.290;2023-12-20T12:16:44;93938.94;;;3.51;100.00
50093;BME280;35974;47.752;10.290;2023-12-20T12:19:24;93946.97;;;3.40;100.00
50093;BME280;35974;47.752;10.290;2023-12-20T12:22:14;93946.81;;;3.33;100.00
50093;BME280;35974;47.752;10.290;2023-12-20T12:24:43;93942.44;;;3.34;100.00
50093;BME280;35974;47.752;10.290;2023-12-20T12:27:11;93936.97;;;3.45;100.00
50093;BME280;35974;47.752;10.290;2023-12-20T12:29:37;93940.84;;;3.49;100.00
50093;BME280;35974;47.752;10.290;2023-12-20T12:32:05;93941.81;;;3.40;100.00
50093;BME280;35974;47.752;10.290;2023-12-20T12:34:32;93935.66;;;3.49;100.00
50093;BME280;35974;47.752;10.290;2023-12-20T12:37:00;93932.47;;;3.63;100.00
50093;BME280;35974;47.752;10.290;2023-12-20T12:39:27;93932.13;;;3.50;100.00
50093;BME280;35974;47.752;10.290;2023-12-20T12:41:53;93934.38;;;3.37;100.00
50093;BME280;35974;47.752;10.290;2023-12-20T12:44:19;93921.13;;;3.40;100.00
50093;BME280;35974;47.752;10.290;2023-12-20T12:46:46;93928.06;;;3.47;100.00
50093;BME280;35974;47.752;10.290;2023-12-20T12:49:13;93925.16;;;3.42;100.00
50093;BME280;35974;47.752;10.290;2023-12-20T12:51:39;93913.38;;;3.48;100.00
50093;BME280;35974;47.752;10.290;2023-12-20T12:54:06;93921.44;;;3.45;100.00
50093;BME280;35974;47.752;10.290;2023-12-20T12:56:32;93915.28;;;3.46;100.00
50093;BME280;35974;47.752;10.290;2023-12-20T12:58:59;93921.31;;;3.71;100.00
50093;BME280;35974;47.752;10.290;2023-12-20T13:01:25;93901.72;;;3.60;100.00
50093;BME280;35974;47.752;10.290;2023-12-20T13:03:52;93896.88;;;3.57;100.00
50093;BME280;35974;47.752;10.290;2023-12-20T13:06:18;93913.38;;;3.48;100.00
50093;BME280;35974;47.752;10.290;2023-12-20T13:08:45;93899.44;;;3.49;100.00
50093;BME280;35974;47.752;10.290;2023-12-20T13:11:11;93905.28;;;3.43;100.00